Time;durP1;ratioP1;P1;durP2;ratioP2;P2;SDS_P1;SDS_P2;PMS_P1;PMS_P2;Temp;Humidity;BMP_temperature;BMP_pressure;BME280_temperature;BME280_humidity;BME280_pressure;Samples;Min_cycle;Max_cycle;Signal;HPM_P1;HPM_P2
2022/10/30 00:00:25;;;;;;;20.05;10.65;;;15.80;99.90;;;;;;5140520;27;20039;-73
2022/10/30 00:02:50;;;;;;;18.45;9.32;;;15.80;99.90;;;;;;5140363;27;20096;-72
2022/10/30 00:05:17;;;;;;;20.50;10.32;;;15.80;99.90;;;;;;5139763;27;20039;-73
2022/10/30 00:07:43;;;;;;;20.00;11.43;;;15.80;99.90;;;;;;5140230;27;20039;-72
2022/10/30 00:10:09;;;;;;;17.58;10.73;;;15.80;99.90;;;;;;5139973;27;20046;-73
2022/10/30 00:12:34;;;;;;;25.45;13.15;;;15.80;99.90;;;;;;5140321;27;20035;-72
2022/10/30 00:15:01;;;;;;;25.15;11.57;;;15.90;99.90;;;;;;5139939;27;20328;-72
2022/10/30 00:17:26;;;;;;;36.00;15.30;;;15.90;99.90;;;;;;5121932;27;20330;-72
2022/10/30 00:19:52;;;;;;;26.92;12.52;;;15.90;99.90;;;;;;5121723;27;20099;-73
2022/10/30 00:22:17;;;;;;;36.40;15.82;;;15.90;99.90;;;;;;5140180;27;20046;-72
2022/10/30 00:24:43;;;;;;;23.00;12.88;;;16.00;99.90;;;;;;5139799;27;20043;-73
2022/10/30 00:27:09;;;;;;;34.15;15.63;;;16.00;99.90;;;;;;5139593;27;20131;-73
2022/10/30 00:29:34;;;;;;;35.22;17.45;;;15.90;99.90;;;;;;5140074;27;20049;-72
2022/10/30 00:32:00;;;;;;;30.60;15.25;;;15.90;99.90;;;;;;5139443;27;20084;-72
2022/10/30 00:34:26;;;;;;;31.02;15.27;;;16.00;99.90;;;;;;5139209;27;20047;-72
2022/10/30 00:36:51;;;;;;;37.50;17.23;;;15.90;99.90;;;;;;5121353;27;20123;-72
2022/10/30 00:39:17;;;;;;;26.88;13.63;;;15.90;99.90;;;;;;5139527;27;20043;-73
2022/10/30 00:41:43;;;;;;;29.63;13.50;;;15.90;99.90;;;;;;5121237;27;20038;-73
2022/10/30 00:44:37;;;;;;;33.10;16.88;;;16.00;99.90;;;;;;5139879;27;20039;-72
2022/10/30 00:47:10;;;;;;;38.33;16.60;;;16.00;99.90;;;;;;5139295;27;20039;-73
2022/10/30 00:49:42;;;;;;;27.02;14.77;;;15.90;99.90;;;;;;5121322;27;20126;-72
2022/10/30 00:52:09;;;;;;;38.22;17.02;;;15.90;99.90;;;;;;5139585;27;20039;-73
2022/10/30 00:54:35;;;;;;;45.13;17.02;;;15.90;99.90;;;;;;5139289;27;20027;-72
2022/10/30 00:57:04;;;;;;;27.27;14.23;;;15.90;99.90;;;;;;5139539;27;20383;-73
2022/10/30 00:59:33;;;;;;;32.85;15.63;;;15.90;99.90;;;;;;5139121;27;20066;-72
2022/10/30 01:02:00;;;;;;;31.70;15.70;;;15.90;99.90;;;;;;5139273;27;20049;-73
2022/10/30 01:04:27;;;;;;;21.05;12.48;;;15.90;99.90;;;;;;5120995;27;20046;-73
2022/10/30 01:06:53;;;;;;;20.83;11.70;;;15.90;99.90;;;;;;5138457;27;20039;-73
2022/10/30 01:09:20;;;;;;;32.25;13.82;;;15.90;99.90;;;;;;5120826;27;20046;-72
2022/10/30 01:11:45;;;;;;;25.08;12.80;;;15.90;99.90;;;;;;5139006;27;20036;-72
2022/10/30 01:14:15;;;;;;;27.55;13.18;;;16.00;99.90;;;;;;5139176;27;20309;-72
2022/10/30 01:16:44;;;;;;;21.70;11.73;;;16.00;99.90;;;;;;5120833;27;20039;-73
2022/10/30 01:19:13;;;;;;;28.02;14.20;;;16.00;99.90;;;;;;5138727;27;20039;-73
2022/10/30 01:21:44;;;;;;;26.60;12.18;;;15.90;99.90;;;;;;5139005;27;20039;-73
2022/10/30 01:24:39;;;;;;;28.65;14.63;;;15.90;99.90;;;;;;5138820;27;20093;-73
2022/10/30 01:27:25;;;;;;;26.73;11.80;;;15.90;99.90;;;;;;5138572;27;20416;-72
2022/10/30 01:30:29;;;;;;;30.17;13.05;;;15.90;99.90;;;;;;5120193;27;20035;-73
2022/10/30 01:33:29;;;;;;;24.83;13.07;;;15.90;99.90;;;;;;5120381;27;20123;-72
2022/10/30 01:36:05;;;;;;;37.47;15.25;;;15.90;99.90;;;;;;5138131;27;20497;-73
2022/10/30 01:38:38;;;;;;;25.88;12.27;;;15.90;99.90;;;;;;5138409;27;20424;-72
2022/10/30 01:41:04;;;;;;;32.45;14.82;;;15.90;99.90;;;;;;5138298;27;20046;-73
2022/10/30 01:43:31;;;;;;;36.10;15.30;;;15.90;99.90;;;;;;5138245;27;20047;-72
2022/10/30 01:46:34;;;;;;;25.20;12.55;;;15.90;99.90;;;;;;5137706;27;20122;-72
2022/10/30 01:49:44;;;;;;;32.72;13.82;;;15.90;99.90;;;;;;5138533;27;20043;-72
2022/10/30 01:52:27;;;;;;;31.98;13.43;;;15.90;99.90;;;;;;5138473;27;20043;-72
2022/10/30 01:55:22;;;;;;;28.40;13.35;;;15.80;99.90;;;;;;5137950;27;20053;-73
2022/10/30 01:58:01;;;;;;;30.55;13.23;;;15.80;99.90;;;;;;5138700;27;20039;-72
2022/10/30 02:00:27;;;;;;;29.75;13.05;;;15.80;99.90;;;;;;5137973;27;20042;-73
2022/10/30 02:02:53;;;;;;;38.85;16.42;;;15.70;99.90;;;;;;5137950;27;20035;-72
2022/10/30 02:05:39;;;;;;;25.52;13.13;;;15.70;99.90;;;;;;5137723;27;20047;-73
2022/10/30 02:08:05;;;;;;;28.73;14.32;;;15.70;99.90;;;;;;5138104;27;20039;-72
2022/10/30 02:10:33;;;;;;;33.88;14.68;;;15.70;99.90;;;;;;5137996;27;20118;-72
2022/10/30 02:12:59;;;;;;;35.38;15.88;;;15.70;99.90;;;;;;5137698;27;20118;-72
2022/10/30 02:15:25;;;;;;;38.85;17.17;;;15.70;99.90;;;;;;5138082;27;20042;-72
2022/10/30 02:17:51;;;;;;;38.05;16.58;;;15.60;99.90;;;;;;5137726;27;20358;-72
2022/10/30 02:20:20;;;;;;;35.22;15.70;;;15.60;99.90;;;;;;5137839;27;20042;-73
2022/10/30 02:22:46;;;;;;;36.50;16.38;;;15.60;99.90;;;;;;5137953;27;20035;-72
2022/10/30 02:25:13;;;;;;;43.90;18.00;;;15.60;99.90;;;;;;5137491;27;20043;-72
2022/10/30 02:27:39;;;;;;;30.60;15.75;;;15.60;99.90;;;;;;5137660;27;20038;-72
2022/10/30 02:30:05;;;;;;;38.20;17.73;;;15.60;99.90;;;;;;5137790;27;20383;-73
2022/10/30 02:32:31;;;;;;;35.22;17.38;;;15.70;99.90;;;;;;5137593;27;20047;-73
2022/10/30 02:34:56;;;;;;;40.40;17.35;;;15.70;99.90;;;;;;5137224;27;20339;-73
2022/10/30 02:37:23;;;;;;;35.30;15.45;;;15.70;99.90;;;;;;5137047;28;20035;-73
2022/10/30 02:39:49;;;;;;;37.92;16.63;;;15.60;99.90;;;;;;5137436;28;20042;-73
2022/10/30 02:42:15;;;;;;;28.40;15.35;;;15.60;99.90;;;;;;5137560;28;20060;-73
2022/10/30 02:44:41;;;;;;;32.38;16.13;;;15.70;99.90;;;;;;5137460;28;20328;-72
2022/10/30 02:47:06;;;;;;;29.83;14.98;;;15.70;99.90;;;;;;5137277;28;20452;-72
2022/10/30 02:49:32;;;;;;;28.55;15.43;;;15.70;99.90;;;;;;5137645;28;20037;-72
2022/10/30 02:51:58;;;;;;;34.33;16.17;;;15.80;99.90;;;;;;5137541;28;20039;-72
2022/10/30 02:54:24;;;;;;;26.35;14.10;;;15.80;99.90;;;;;;5137554;28;20336;-73
2022/10/30 02:56:50;;;;;;;37.33;17.10;;;15.80;99.90;;;;;;5137513;27;20038;-73
2022/10/30 02:59:15;;;;;;;27.08;14.10;;;15.70;99.90;;;;;;5141455;27;20045;-73
2022/10/30 03:01:41;;;;;;;26.00;12.90;;;15.70;99.90;;;;;;5141367;27;20043;-73
2022/10/30 03:04:07;;;;;;;25.90;14.00;;;15.70;99.90;;;;;;5141618;27;20096;-73
2022/10/30 03:06:33;;;;;;;30.67;16.48;;;15.70;99.90;;;;;;5141041;27;20472;-72
2022/10/30 03:08:58;;;;;;;31.25;15.32;;;15.70;99.90;;;;;;5141363;27;20031;-72
2022/10/30 03:11:24;;;;;;;37.78;17.17;;;15.70;99.90;;;;;;5141416;27;20045;-73
2022/10/30 03:13:50;;;;;;;28.02;13.95;;;15.70;99.90;;;;;;5141172;27;20042;-72
2022/10/30 03:16:21;;;;;;;40.88;16.55;;;15.70;99.90;;;;;;5141390;27;20038;-73
2022/10/30 03:18:47;;;;;;;35.72;15.63;;;15.70;99.90;;;;;;5141102;27;20031;-72
2022/10/30 03:21:16;;;;;;;29.80;14.48;;;15.60;99.90;;;;;;5141303;27;20038;-73
2022/10/30 03:23:42;;;;;;;33.38;15.70;;;15.70;99.90;;;;;;5141254;27;20359;-73
2022/10/30 03:26:08;;;;;;;40.58;17.10;;;15.80;99.90;;;;;;5122877;27;20126;-73
2022/10/30 03:28:33;;;;;;;32.75;15.63;;;15.80;99.90;;;;;;5140944;27;20036;-73
2022/10/30 03:31:11;;;;;;;28.75;14.68;;;15.70;99.90;;;;;;5122829;27;20035;-72
2022/10/30 03:33:37;;;;;;;35.13;17.58;;;15.60;99.90;;;;;;5141148;27;20312;-73
2022/10/30 03:36:05;;;;;;;31.63;16.85;;;15.60;99.90;;;;;;5140198;27;20055;-73
2022/10/30 03:38:31;;;;;;;30.48;16.80;;;15.60;99.90;;;;;;5140922;27;20043;-73
2022/10/30 03:40:57;;;;;;;34.03;18.63;;;15.70;99.90;;;;;;5140626;27;20080;-73
2022/10/30 03:43:22;;;;;;;33.95;15.70;;;15.60;99.90;;;;;;5140696;27;20070;-73
2022/10/30 03:45:50;;;;;;;27.98;15.05;;;15.60;99.90;;;;;;5140778;27;20412;-72
2022/10/30 03:48:17;;;;;;;33.40;15.68;;;15.60;99.90;;;;;;5140658;27;20035;-72
2022/10/30 03:50:43;;;;;;;34.33;18.33;;;15.60;99.90;;;;;;5140796;27;20067;-73
2022/10/30 03:53:09;;;;;;;31.92;16.98;;;15.60;99.90;;;;;;5140609;27;20078;-72
2022/10/30 03:55:35;;;;;;;35.38;17.25;;;15.50;99.90;;;;;;5140633;27;20035;-72
2022/10/30 03:58:00;;;;;;;26.73;15.10;;;15.50;99.90;;;;;;5121789;27;20447;-73
2022/10/30 04:00:26;;;;;;;29.58;16.58;;;15.50;99.90;;;;;;5140340;27;20070;-73
2022/10/30 04:02:52;;;;;;;42.63;18.15;;;15.50;99.90;;;;;;5140614;27;20067;-72
2022/10/30 04:05:19;;;;;;;33.30;17.30;;;15.50;99.90;;;;;;5139854;27;20050;-73
2022/10/30 04:07:46;;;;;;;43.38;18.20;;;15.40;99.90;;;;;;5140123;27;20031;-72
2022/10/30 04:10:13;;;;;;;29.02;16.38;;;15.40;99.90;;;;;;5139400;27;20110;-72
2022/10/30 04:12:39;;;;;;;35.90;16.95;;;15.40;99.90;;;;;;5121836;27;20118;-73
2022/10/30 04:15:06;;;;;;;42.05;18.65;;;15.50;99.90;;;;;;5140217;27;20157;-73
2022/10/30 04:17:32;;;;;;;38.08;18.17;;;15.40;99.90;;;;;;5140308;27;20035;-73
2022/10/30 04:19:58;;;;;;;34.05;17.33;;;15.40;99.90;;;;;;5140022;27;20037;-73
2022/10/30 04:22:23;;;;;;;36.70;17.73;;;15.30;99.90;;;;;;5140191;27;20355;-73
2022/10/30 04:24:49;;;;;;;34.85;17.80;;;15.20;99.90;;;;;;5139778;27;20039;-73
2022/10/30 04:27:15;;;;;;;31.08;15.60;;;15.20;99.90;;;;;;5104461;27;20035;-73
2022/10/30 04:29:41;;;;;;;30.50;17.00;;;15.30;99.90;;;;;;5139966;27;20328;-72
2022/10/30 04:32:08;;;;;;;37.13;15.90;;;15.30;99.90;;;;;;5139583;27;20031;-73
2022/10/30 04:34:34;;;;;;;41.60;16.88;;;15.30;99.90;;;;;;5121740;27;20047;-73
2022/10/30 04:37:00;;;;;;;34.42;18.50;;;15.30;99.90;;;;;;5139210;27;20056;-72
2022/10/30 04:39:25;;;;;;;30.08;14.82;;;15.30;99.90;;;;;;5139874;27;20039;-73
2022/10/30 04:41:51;;;;;;;30.55;15.15;;;15.30;99.90;;;;;;5139412;27;20035;-73
2022/10/30 04:44:17;;;;;;;36.45;16.77;;;15.40;99.90;;;;;;5139725;27;20311;-72
2022/10/30 04:46:42;;;;;;;38.70;17.95;;;15.40;99.90;;;;;;5121099;27;20118;-72
2022/10/30 04:49:08;;;;;;;33.35;16.48;;;15.40;99.90;;;;;;5139439;27;20073;-72
2022/10/30 04:51:34;;;;;;;37.40;17.83;;;15.30;99.90;;;;;;5139409;27;20035;-72
2022/10/30 04:54:00;;;;;;;37.75;14.63;;;15.30;99.90;;;;;;5139465;27;20430;-72
2022/10/30 04:56:25;;;;;;;29.65;15.55;;;15.30;99.90;;;;;;5139507;27;20074;-73
2022/10/30 04:58:52;;;;;;;33.85;17.92;;;15.40;99.90;;;;;;5121309;27;20137;-73
2022/10/30 05:01:18;;;;;;;21.65;13.45;;;15.30;99.90;;;;;;5139354;27;20116;-73
2022/10/30 05:03:43;;;;;;;29.60;14.55;;;15.20;99.90;;;;;;5139044;27;20053;-73
2022/10/30 05:06:20;;;;;;;33.28;17.52;;;15.20;99.90;;;;;;5138678;27;20043;-73
2022/10/30 05:08:46;;;;;;;32.30;15.73;;;15.30;99.90;;;;;;5138991;27;20493;-73
2022/10/30 05:11:12;;;;;;;26.77;14.60;;;15.20;99.90;;;;;;5138787;27;20074;-73
2022/10/30 05:13:37;;;;;;;37.38;16.88;;;15.30;99.90;;;;;;5139173;27;20083;-73
2022/10/30 05:16:03;;;;;;;38.10;16.63;;;15.30;99.90;;;;;;5138991;27;20039;-73
2022/10/30 05:18:29;;;;;;;32.05;15.95;;;15.20;99.90;;;;;;5139018;27;20039;-73
2022/10/30 05:20:55;;;;;;;33.55;17.30;;;15.30;99.90;;;;;;5138082;27;20045;-73
2022/10/30 05:23:20;;;;;;;40.92;16.67;;;15.20;99.90;;;;;;5138892;27;20035;-73
2022/10/30 05:25:46;;;;;;;32.90;17.35;;;15.20;99.90;;;;;;5138519;27;20328;-72
2022/10/30 05:28:12;;;;;;;43.65;21.20;;;15.30;99.90;;;;;;5138780;27;20046;-73
2022/10/30 05:30:37;;;;;;;49.25;21.42;;;15.30;99.90;;;;;;5138836;27;20031;-73
2022/10/30 05:33:06;;;;;;;43.85;20.30;;;15.30;99.90;;;;;;5120464;27;20432;-72
2022/10/30 05:35:33;;;;;;;35.85;18.75;;;15.20;99.90;;;;;;5137980;27;20051;-73
2022/10/30 05:38:00;;;;;;;36.75;17.00;;;15.30;99.90;;;;;;5120090;27;20046;-73
2022/10/30 05:40:26;;;;;;;35.63;16.23;;;15.30;99.90;;;;;;5138672;27;20039;-72
2022/10/30 05:42:58;;;;;;;30.45;14.95;;;15.20;99.90;;;;;;5155833;27;20672;-71
2022/10/30 05:45:24;;;;;;;46.92;18.83;;;15.10;99.90;;;;;;5154786;27;20336;-72
2022/10/30 05:47:59;;;;;;;26.30;13.98;;;15.10;99.90;;;;;;5155834;27;20041;-71
2022/10/30 05:50:26;;;;;;;40.60;16.92;;;15.00;99.90;;;;;;5155281;27;20033;-73
2022/10/30 05:52:59;;;;;;;34.30;16.08;;;15.10;99.90;;;;;;5155687;27;20041;-72
2022/10/30 05:55:26;;;;;;;34.80;17.45;;;15.10;99.90;;;;;;5155444;27;20043;-72
2022/10/30 05:57:56;;;;;;;30.13;15.10;;;15.10;99.90;;;;;;5155493;27;20047;-72
2022/10/30 06:00:21;;;;;;;34.05;18.00;;;15.20;99.90;;;;;;5154450;27;20107;-71
2022/10/30 06:02:47;;;;;;;28.52;14.57;;;15.10;99.90;;;;;;5155299;27;20372;-72
2022/10/30 06:05:13;;;;;;;34.83;16.98;;;15.00;99.90;;;;;;5155416;27;20109;-72
2022/10/30 06:07:38;;;;;;;47.03;18.27;;;15.10;99.90;;;;;;5154837;27;20062;-71
2022/10/30 06:10:05;;;;;;;36.75;18.65;;;15.00;99.90;;;;;;5155419;27;20054;-71
2022/10/30 06:12:30;;;;;;;34.58;17.63;;;15.00;99.90;;;;;;5155081;27;20379;-72
2022/10/30 06:14:56;;;;;;;39.17;18.25;;;14.90;99.90;;;;;;5155294;27;20030;-72
2022/10/30 06:17:22;;;;;;;43.30;19.30;;;14.90;99.90;;;;;;5154905;27;20373;-72
2022/10/30 06:19:47;;;;;;;42.20;19.70;;;14.90;99.90;;;;;;5155086;27;20396;-71
2022/10/30 06:22:13;;;;;;;44.22;20.48;;;14.80;99.90;;;;;;5154717;27;20035;-72
2022/10/30 06:24:39;;;;;;;35.88;17.70;;;14.80;99.90;;;;;;5188852;27;20077;-72
2022/10/30 06:27:04;;;;;;;32.30;16.23;;;14.80;99.90;;;;;;5154615;27;20050;-71
2022/10/30 06:29:30;;;;;;;26.73;14.45;;;14.80;99.90;;;;;;5154851;27;20453;-71
2022/10/30 06:31:55;;;;;;;40.80;17.80;;;14.90;99.90;;;;;;5188677;27;20440;-74
2022/10/30 06:34:21;;;;;;;37.08;17.73;;;14.90;99.90;;;;;;5154536;27;20038;-74
2022/10/30 06:36:47;;;;;;;38.33;18.23;;;14.90;99.90;;;;;;5188513;27;20134;-74
2022/10/30 06:39:12;;;;;;;35.65;17.85;;;14.90;99.90;;;;;;5153608;27;20340;-73
2022/10/30 06:41:38;;;;;;;47.08;21.15;;;14.90;99.90;;;;;;5154500;27;20051;-73
2022/10/30 06:44:04;;;;;;;24.67;14.95;;;14.90;99.90;;;;;;5153324;27;20035;-73
2022/10/30 06:46:29;;;;;;;36.78;15.38;;;14.90;99.90;;;;;;5154247;27;20039;-74
2022/10/30 06:48:55;;;;;;;40.05;16.35;;;14.90;99.90;;;;;;5188374;27;20042;-73
2022/10/30 06:51:21;;;;;;;33.28;15.77;;;15.00;99.90;;;;;;5154204;27;20096;-73
2022/10/30 06:53:47;;;;;;;29.77;16.02;;;14.90;99.90;;;;;;5144007;27;20050;-73
2022/10/30 06:56:12;;;;;;;35.78;18.55;;;14.90;99.90;;;;;;5140547;27;20054;-74
2022/10/30 06:58:38;;;;;;;31.73;15.50;;;14.90;99.90;;;;;;5140550;27;20317;-73
2022/10/30 07:01:07;;;;;;;37.95;17.88;;;14.90;99.90;;;;;;5140404;27;20416;-74
2022/10/30 07:03:33;;;;;;;35.85;17.67;;;14.90;99.90;;;;;;5140171;27;20066;-74
2022/10/30 07:05:59;;;;;;;40.58;19.73;;;14.90;99.90;;;;;;5140031;27;20067;-73
2022/10/30 07:08:25;;;;;;;33.92;17.30;;;14.90;99.90;;;;;;5140255;27;20035;-73
2022/10/30 07:10:51;;;;;;;25.65;14.93;;;14.90;99.90;;;;;;5140219;27;20168;-73
2022/10/30 07:13:16;;;;;;;36.17;17.85;;;15.00;99.90;;;;;;5140237;27;20043;-73
2022/10/30 07:15:42;;;;;;;31.90;15.88;;;15.10;99.90;;;;;;5140238;27;20032;-74
2022/10/30 07:18:09;;;;;;;33.97;17.20;;;15.10;99.90;;;;;;5140067;27;20031;-74
2022/10/30 07:20:35;;;;;;;32.38;15.23;;;15.00;99.90;;;;;;5139906;27;20439;-74
2022/10/30 07:23:02;;;;;;;30.25;15.73;;;14.90;99.90;;;;;;5139879;27;20049;-74
2022/10/30 07:25:28;;;;;;;33.33;17.45;;;14.80;99.90;;;;;;5139692;27;20098;-74
2022/10/30 07:27:55;;;;;;;33.58;16.63;;;14.90;99.90;;;;;;5140048;27;20095;-73
2022/10/30 07:30:23;;;;;;;34.25;16.55;;;14.90;99.90;;;;;;5139382;27;20390;-74
2022/10/30 07:33:01;;;;;;;35.92;18.52;;;14.90;99.90;;;;;;5138400;27;20039;-74
2022/10/30 07:35:28;;;;;;;39.88;19.52;;;14.90;99.90;;;;;;5139138;27;20081;-74
2022/10/30 07:37:54;;;;;;;31.75;16.77;;;15.10;99.90;;;;;;5139232;27;20039;-73
2022/10/30 07:40:20;;;;;;;38.03;18.20;;;15.10;99.90;;;;;;5139499;27;20385;-74
2022/10/30 07:42:46;;;;;;;29.08;15.57;;;15.20;99.90;;;;;;5139306;27;20096;-73
2022/10/30 07:45:12;;;;;;;34.85;17.27;;;15.40;99.90;;;;;;5139347;27;20382;-74
2022/10/30 07:47:41;;;;;;;28.73;15.95;;;15.50;99.90;;;;;;5139270;27;20035;-74
2022/10/30 07:50:08;;;;;;;43.65;19.02;;;15.50;99.90;;;;;;5138359;27;20420;-73
2022/10/30 07:52:34;;;;;;;43.03;19.95;;;15.60;99.90;;;;;;5139220;27;20050;-74
2022/10/30 07:55:00;;;;;;;37.13;17.75;;;15.60;99.90;;;;;;5139308;27;20039;-70
2022/10/30 07:57:26;;;;;;;37.40;18.00;;;15.70;99.90;;;;;;5139201;27;20042;-71
2022/10/30 07:59:51;;;;;;;45.53;20.50;;;15.80;99.90;;;;;;5138322;27;20092;-71
2022/10/30 08:02:17;;;;;;;35.45;17.92;;;15.80;99.90;;;;;;5139195;27;20038;-69
2022/10/30 08:04:42;;;;;;;39.08;18.30;;;15.90;99.90;;;;;;5137941;27;20455;-69
2022/10/30 08:07:08;;;;;;;39.78;19.33;;;16.00;99.90;;;;;;5138936;27;20039;-69
2022/10/30 08:09:34;;;;;;;45.17;19.48;;;16.00;99.90;;;;;;5138850;27;20035;-72
2022/10/30 08:11:59;;;;;;;40.10;18.25;;;16.10;99.90;;;;;;5138034;27;20085;-71
2022/10/30 08:14:25;;;;;;;36.85;18.25;;;16.10;99.90;;;;;;5138838;27;20373;-72
2022/10/30 08:16:51;;;;;;;38.90;18.20;;;16.10;99.90;;;;;;5139116;27;20035;-71
2022/10/30 08:19:17;;;;;;;39.28;18.98;;;16.10;99.90;;;;;;5138958;27;20031;-71
2022/10/30 08:21:42;;;;;;;39.22;17.65;;;16.10;99.90;;;;;;5139000;27;20043;-71
2022/10/30 08:24:08;;;;;;;37.95;18.85;;;16.10;99.90;;;;;;5139352;27;20047;-74
2022/10/30 08:26:34;;;;;;;22.10;12.85;;;16.10;99.90;;;;;;5138904;27;20039;-79
2022/10/30 08:29:00;;;;;;;25.67;13.43;;;16.10;99.90;;;;;;5137698;27;20043;-81
2022/10/30 08:31:26;;;;;;;21.70;11.98;;;16.10;99.90;;;;;;5138422;27;20084;-79
2022/10/30 08:33:51;;;;;;;28.25;14.15;;;16.20;99.90;;;;;;5138332;27;20109;-79
2022/10/30 08:36:17;;;;;;;31.60;16.02;;;16.30;99.90;;;;;;5138228;27;20039;-79
2022/10/30 08:38:42;;;;;;;35.72;18.02;;;16.20;99.90;;;;;;5138573;27;20046;-74
2022/10/30 08:41:08;;;;;;;31.95;16.50;;;16.20;99.90;;;;;;5138171;27;20054;-80
2022/10/30 08:43:34;;;;;;;40.10;18.35;;;16.20;99.90;;;;;;5138255;27;20043;-72
2022/10/30 08:46:00;;;;;;;42.50;18.85;;;16.30;99.90;;;;;;5138270;27;20039;-72
2022/10/30 08:48:26;;;;;;;36.47;19.50;;;16.40;99.90;;;;;;5138516;27;20051;-72
2022/10/30 08:50:52;;;;;;;33.58;19.17;;;16.50;99.90;;;;;;5138148;27;20031;-72
2022/10/30 08:53:19;;;;;;;31.08;18.33;;;16.60;99.90;;;;;;5138294;27;20035;-72
2022/10/30 08:55:45;;;;;;;39.17;18.67;;;16.70;99.90;;;;;;5138149;27;20035;-72
2022/10/30 08:58:10;;;;;;;38.38;19.38;;;16.80;99.90;;;;;;5138092;27;20305;-72
2022/10/30 09:00:36;;;;;;;31.27;18.30;;;16.80;99.90;;;;;;5137864;27;20041;-72
2022/10/30 09:03:02;;;;;;;29.05;16.02;;;16.90;99.90;;;;;;5138108;27;20043;-76
2022/10/30 09:05:28;;;;;;;35.13;18.48;;;17.00;99.90;;;;;;5137932;27;20046;-76
2022/10/30 09:07:59;;;;;;;38.22;18.17;;;16.90;99.90;;;;;;5153818;27;20073;-76
2022/10/30 09:10:25;;;;;;;37.92;18.42;;;17.00;99.90;;;;;;5138157;27;20039;-76
2022/10/30 09:12:55;;;;;;;38.25;16.52;;;17.10;99.90;;;;;;5137611;27;20051;-76
2022/10/30 09:15:21;;;;;;;36.45;17.40;;;17.10;99.90;;;;;;5136592;27;20077;-76
2022/10/30 09:17:47;;;;;;;33.65;17.70;;;17.20;99.90;;;;;;5137650;27;20079;-76
2022/10/30 09:20:12;;;;;;;39.72;16.85;;;17.20;99.90;;;;;;5137823;27;20080;-76
2022/10/30 09:22:42;;;;;;;32.72;17.27;;;17.10;99.90;;;;;;5137454;27;20135;-75
2022/10/30 09:25:08;;;;;;;37.58;18.33;;;17.20;99.90;;;;;;5137648;27;20049;-75
2022/10/30 09:27:38;;;;;;;40.70;16.38;;;17.20;99.90;;;;;;5137759;27;20035;-71
2022/10/30 09:30:05;;;;;;;35.15;16.27;;;17.30;99.90;;;;;;5121928;27;20119;-72
2022/10/30 09:32:30;;;;;;;32.13;15.93;;;17.30;99.90;;;;;;5134677;27;20043;-72
2022/10/30 09:34:56;;;;;;;34.95;16.67;;;17.40;99.90;;;;;;5133280;27;20040;-72
2022/10/30 09:37:23;;;;;;;41.15;16.42;;;17.50;99.90;;;;;;5127676;27;20377;-73
2022/10/30 09:39:48;;;;;;;28.48;15.35;;;17.60;99.90;;;;;;5134751;27;20074;-73
2022/10/30 09:42:39;;;;;;;28.25;15.60;;;17.70;99.90;;;;;;5136362;27;20138;-77
2022/10/30 09:45:17;;;;;;;29.27;15.35;;;17.80;99.90;;;;;;5137632;27;20038;-78
2022/10/30 09:48:02;;;;;;;27.10;14.70;;;17.90;99.90;;;;;;5137477;27;20039;-78
2022/10/30 09:50:53;;;;;;;25.85;13.90;;;17.90;99.90;;;;;;5136895;28;20301;-71
2022/10/30 09:53:34;;;;;;;32.20;14.70;;;17.80;99.90;;;;;;5137683;27;20047;-72
2022/10/30 09:56:14;;;;;;;31.65;14.93;;;18.00;99.90;;;;;;5136260;28;20047;-72
2022/10/30 09:58:45;;;;;;;25.83;13.90;;;18.20;99.90;;;;;;5137415;27;20336;-72
2022/10/30 10:01:21;;;;;;;23.75;13.55;;;18.50;99.90;;;;;;5137063;28;20428;-72
2022/10/30 10:04:11;;;;;;;25.77;13.98;;;18.60;99.90;;;;;;5137481;27;20031;-72
2022/10/30 10:06:42;;;;;;;28.50;13.38;;;18.80;99.90;;;;;;5137046;28;20043;-72
2022/10/30 10:09:22;;;;;;;28.58;13.35;;;19.10;99.90;;;;;;5137271;27;20047;-72
2022/10/30 10:11:54;;;;;;;29.33;13.10;;;19.20;99.90;;;;;;5137540;27;20046;-72
2022/10/30 10:14:22;;;;;;;26.63;13.55;;;19.20;99.90;;;;;;5137117;27;20511;-72
2022/10/30 10:16:51;;;;;;;26.88;13.02;;;19.30;99.90;;;;;;5136467;28;20115;-71
2022/10/30 10:19:21;;;;;;;23.77;13.27;;;19.40;99.90;;;;;;5137166;27;20047;-72
2022/10/30 10:21:56;;;;;;;27.88;12.20;;;19.50;99.90;;;;;;5137189;27;20039;-72
2022/10/30 10:24:44;;;;;;;26.10;13.25;;;19.70;99.90;;;;;;5136118;27;20075;-72
2022/10/30 10:27:58;;;;;;;33.28;12.95;;;19.90;99.90;;;;;;5137132;27;20035;-71
2022/10/30 10:30:29;;;;;;;21.75;11.75;;;20.10;99.90;;;;;;5140923;27;20342;-72
2022/10/30 10:33:08;;;;;;;24.83;11.00;;;20.30;99.90;;;;;;5140120;27;20043;-72
2022/10/30 10:35:52;;;;;;;20.92;10.38;;;20.60;99.90;;;;;;5139806;27;20055;-71
2022/10/30 10:38:53;;;;;;;19.75;10.07;;;20.80;99.90;;;;;;5140402;27;20043;-71
2022/10/30 10:41:31;;;;;;;19.38;9.32;;;20.80;99.90;;;;;;5135281;27;20055;-71
2022/10/30 10:44:00;;;;;;;21.88;8.88;;;21.00;99.90;;;;;;5140779;27;20105;-72
2022/10/30 10:46:36;;;;;;;23.77;9.98;;;21.00;99.90;;;;;;5139512;27;20035;-69
2022/10/30 10:49:16;;;;;;;25.83;10.20;;;21.10;99.90;;;;;;5140340;27;20039;-70
2022/10/30 10:51:57;;;;;;;24.02;8.63;;;21.30;99.90;;;;;;5140710;27;20051;-69
2022/10/30 10:54:39;;;;;;;20.00;9.18;;;21.30;99.90;;;;;;5140359;27;20078;-70
2022/10/30 10:57:11;;;;;;;13.43;7.47;;;21.40;99.90;;;;;;5140649;27;20039;-70
2022/10/30 10:59:42;;;;;;;17.88;8.13;;;21.60;99.90;;;;;;5140516;27;20042;-69
2022/10/30 11:02:08;;;;;;;13.60;7.75;;;21.60;99.90;;;;;;5139462;27;20114;-70
2022/10/30 11:04:44;;;;;;;18.63;8.30;;;21.80;99.90;;;;;;5140169;27;20067;-80
2022/10/30 11:07:23;;;;;;;;;;;21.90;99.90;;;;;;5139272;27;20039;-83
2022/10/30 11:09:54;;;;;;;20.63;8.02;;;21.40;99.90;;;;;;5138899;27;20300;-72
2022/10/30 11:12:29;;;;;;;20.70;9.65;;;21.40;99.90;;;;;;5139970;27;20036;-73
2022/10/30 11:15:02;;;;;;;21.27;9.07;;;21.70;99.90;;;;;;5139295;27;20118;-73
2022/10/30 11:17:40;;;;;;;20.15;9.60;;;22.00;99.90;;;;;;5140252;27;20324;-74
2022/10/30 11:20:19;;;;;;;22.27;8.07;;;22.50;99.90;;;;;;5140109;27;20156;-73
2022/10/30 11:22:50;;;;;;;16.83;7.65;;;22.90;99.90;;;;;;5139788;27;20043;-72
2022/10/30 11:25:24;;;;;;;19.50;7.63;;;23.10;99.40;;;;;;5139916;27;20095;-72
2022/10/30 11:27:55;;;;;;;15.80;6.82;;;23.20;99.80;;;;;;5139991;27;20039;-72
2022/10/30 11:30:23;;;;;;;13.95;6.25;;;23.50;99.30;;;;;;5138896;27;20376;-71
2022/10/30 11:32:50;;;;;;;17.58;7.60;;;23.70;99.30;;;;;;5139717;27;20328;-74
2022/10/30 11:35:18;;;;;;;18.02;7.50;;;23.80;98.70;;;;;;5139511;27;20035;-76
2022/10/30 11:37:47;;;;;;;15.65;6.88;;;23.50;98.90;;;;;;5121672;27;20129;-76
2022/10/30 11:40:13;;;;;;;14.52;7.10;;;23.40;99.00;;;;;;5139740;27;20406;-76
2022/10/30 11:42:50;;;;;;;12.85;6.40;;;23.40;99.20;;;;;;5138184;27;20135;-73
2022/10/30 11:45:24;;;;;;;15.23;6.72;;;23.60;99.20;;;;;;5138209;27;20438;-74
2022/10/30 11:47:50;;;;;;;14.57;6.50;;;23.70;99.30;;;;;;5173012;27;20054;-73
2022/10/30 11:50:22;;;;;;;14.45;6.30;;;23.80;99.30;;;;;;5139467;27;20074;-73
2022/10/30 11:52:52;;;;;;;19.65;5.90;;;24.00;98.90;;;;;;5138035;27;20058;-73
2022/10/30 11:55:22;;;;;;;10.82;5.65;;;23.90;98.80;;;;;;5139179;27;20035;-73
2022/10/30 11:57:54;;;;;;;23.35;6.43;;;23.80;98.80;;;;;;5139487;27;20031;-73
2022/10/30 12:00:23;;;;;;;14.93;5.93;;;23.70;99.10;;;;;;5139468;27;20047;-72
2022/10/30 12:02:54;;;;;;;13.82;5.88;;;23.70;99.40;;;;;;5139109;27;20094;-72
2022/10/30 12:05:28;;;;;;;18.52;6.45;;;23.70;99.70;;;;;;5139124;27;20118;-72
2022/10/30 12:08:16;;;;;;;16.88;6.35;;;23.60;99.10;;;;;;5138602;27;20358;-73
2022/10/30 12:11:04;;;;;;;13.35;6.38;;;23.50;99.30;;;;;;5139089;27;20103;-73
2022/10/30 12:13:38;;;;;;;11.57;5.47;;;23.30;99.40;;;;;;5137985;27;20035;-73
2022/10/30 12:16:04;;;;;;;14.38;6.03;;;23.10;99.60;;;;;;5138691;27;20043;-73
2022/10/30 12:18:31;;;;;;;14.43;5.50;;;23.20;99.50;;;;;;5137695;27;20049;-73
2022/10/30 12:20:57;;;;;;;14.52;5.90;;;23.30;99.60;;;;;;5172456;27;20384;-73
2022/10/30 12:23:26;;;;;;;17.65;5.47;;;23.50;99.80;;;;;;5120746;27;20043;-75
2022/10/30 12:25:54;;;;;;;17.48;6.32;;;23.50;98.80;;;;;;5138750;27;20324;-72
2022/10/30 12:28:23;;;;;;;17.13;5.53;;;23.30;99.10;;;;;;5138753;27;20035;-74
2022/10/30 12:30:55;;;;;;;17.58;6.25;;;23.10;99.30;;;;;;5138534;27;20099;-75
2022/10/30 12:33:39;;;;;;;12.32;5.40;;;22.80;99.70;;;;;;5137172;27;20039;-75
2022/10/30 12:36:12;;;;;;;14.52;5.80;;;22.70;99.90;;;;;;5137595;27;20039;-71
2022/10/30 12:38:51;;;;;;;18.67;5.88;;;22.60;99.90;;;;;;5138514;27;20041;-71